Time;durP1;ratioP1;P1;durP2;ratioP2;P2;SDS_P1;SDS_P2;PMS_P1;PMS_P2;Temp;Humidity;BMP_temperature;BMP_pressure;BME280_temperature;BME280_humidity;BME280_pressure;Samples;Min_cycle;Max_cycle;Signal;HPM_P1;HPM_P2
2022/02/22 00:02:23;;;;;;;13.00;5.40;;;;;;;2.89;67.16;98425.05;1677538;84;25643;-70
2022/02/22 00:04:50;;;;;;;13.72;5.78;;;;;;;2.95;67.19;98427.85;1697867;84;25538;-70
2022/02/22 00:07:16;;;;;;;13.65;5.62;;;;;;;2.99;66.98;98425.59;1697715;84;25709;-70
2022/02/22 00:09:42;;;;;;;12.28;6.00;;;;;;;3.07;66.76;98429.98;1697866;84;26169;-70
2022/02/22 00:12:10;;;;;;;15.28;5.22;;;;;;;3.12;66.62;98441.88;1697843;84;27332;-70
2022/02/22 00:14:36;;;;;;;11.60;5.45;;;;;;;3.17;66.57;98437.74;1697707;84;25760;-70
2022/02/22 00:17:03;;;;;;;16.40;5.47;;;;;;;3.24;65.67;98442.10;1697816;84;25654;-70
2022/02/22 00:19:30;;;;;;;12.28;5.92;;;;;;;3.30;65.66;98441.42;1697810;84;25628;-70
2022/02/22 00:21:57;;;;;;;15.10;5.28;;;;;;;3.36;65.12;98438.31;1697936;84;25594;-70
2022/02/22 00:24:24;;;;;;;15.83;5.65;;;;;;;3.42;65.22;98440.86;1697821;84;27337;-70
2022/02/22 00:26:53;;;;;;;14.78;5.92;;;;;;;3.45;65.49;98434.91;1697804;84;25632;-70
2022/02/22 00:29:20;;;;;;;14.55;5.22;;;;;;;3.49;65.00;98435.86;1697998;84;25574;-70
2022/02/22 00:31:48;;;;;;;15.80;5.03;;;;;;;3.51;64.95;98442.48;1697938;84;25674;-70
2022/02/22 00:34:14;;;;;;;12.45;5.75;;;;;;;3.54;64.92;98449.90;1697758;84;25613;-71
2022/02/22 00:36:42;;;;;;;12.35;5.08;;;;;;;3.57;64.81;98449.81;1677693;84;28080;-71
2022/02/22 00:39:09;;;;;;;13.80;4.72;;;;;;;3.58;64.59;98452.74;1697765;84;25626;-71
2022/02/22 00:41:35;;;;;;;11.18;5.20;;;;;;;3.61;63.53;98449.46;1697885;84;25573;-69
2022/02/22 00:44:03;;;;;;;12.37;4.50;;;;;;;3.65;64.11;98453.09;1697909;84;26168;-71
2022/02/22 00:46:32;;;;;;;10.13;4.60;;;;;;;3.68;64.05;98457.05;1697780;84;25607;-70
2022/02/22 00:48:58;;;;;;;11.80;4.92;;;;;;;3.69;63.66;98453.26;1697851;84;27375;-70
2022/02/22 00:51:26;;;;;;;15.95;5.60;;;;;;;3.69;63.39;98450.02;1677888;84;25654;-70
2022/02/22 00:53:53;;;;;;;12.25;5.00;;;;;;;3.70;63.09;98442.81;1698029;84;25455;-71
2022/02/22 00:56:19;;;;;;;13.30;4.67;;;;;;;3.72;63.58;98460.11;1698049;84;25736;-72
2022/02/22 00:58:45;;;;;;;12.78;4.85;;;;;;;3.74;63.47;98457.91;1698102;84;25531;-71
2022/02/22 01:01:15;;;;;;;12.75;4.97;;;;;;;3.76;63.77;98447.47;1698087;84;27047;-70
2022/02/22 01:03:40;;;;;;;12.37;4.55;;;;;;;3.77;63.43;98459.75;1697597;84;25708;-70
2022/02/22 01:06:07;;;;;;;12.18;4.62;;;;;;;3.79;63.25;98460.23;1697820;84;25562;-71
2022/02/22 01:08:33;;;;;;;11.18;4.58;;;;;;;3.80;63.41;98460.45;1697728;84;25669;-70
2022/02/22 01:11:00;;;;;;;11.35;4.20;;;;;;;3.81;63.39;98472.73;1697899;84;25546;-70
2022/02/22 01:13:26;;;;;;;11.28;4.40;;;;;;;3.84;63.52;98466.78;1697047;84;27844;-71
2022/02/22 01:15:53;;;;;;;8.85;4.70;;;;;;;3.86;63.23;98461.34;1697661;84;25867;-70
2022/02/22 01:18:19;;;;;;;22.17;8.10;;;;;;;3.89;63.32;98463.97;1697752;84;25594;-70
2022/02/22 01:20:46;;;;;;;10.98;3.83;;;;;;;3.93;62.82;98477.76;1704922;84;25621;-70
2022/02/22 01:23:13;;;;;;;22.67;6.37;;;;;;;3.97;62.91;98469.09;1718354;83;25396;-70
2022/02/22 01:25:41;;;;;;;22.48;7.72;;;;;;;4.00;63.59;98475.17;1705175;84;27340;-70
2022/02/22 01:28:07;;;;;;;12.37;5.70;;;;;;;4.02;62.63;98483.14;1718596;83;25579;-70
2022/02/22 01:30:34;;;;;;;9.65;4.33;;;;;;;4.05;63.23;98486.53;1705257;84;25638;-71
2022/02/22 01:33:00;;;;;;;9.88;4.42;;;;;;;4.10;63.46;98482.38;1718716;83;25576;-70
2022/02/22 01:35:27;;;;;;;11.30;4.62;;;;;;;4.14;63.35;98491.11;1722036;82;25519;-70
2022/02/22 01:37:53;;;;;;;12.10;5.05;;;;;;;4.18;63.49;98492.08;1711576;83;27328;-71
2022/02/22 01:40:21;;;;;;;8.08;4.15;;;;;;;4.20;63.59;98487.20;1686923;83;25565;-70
2022/02/22 01:42:47;;;;;;;9.18;4.53;;;;;;;4.20;63.33;98485.30;1711530;83;25625;-71
2022/02/22 01:45:15;;;;;;;9.78;3.98;;;;;;;4.22;63.49;98480.98;1701853;83;25807;-70
2022/02/22 01:47:42;;;;;;;11.45;4.58;;;;;;;4.21;63.52;98474.84;1726382;83;25690;-71
2022/02/22 01:50:09;;;;;;;10.20;4.33;;;;;;;4.21;63.67;98488.23;1686818;83;27390;-70
2022/02/22 01:52:35;;;;;;;9.95;4.22;;;;;;;4.22;63.58;98492.50;1711345;83;25572;-70
2022/02/22 01:55:02;;;;;;;13.78;4.35;;;;;;;4.21;63.36;98494.14;1711422;83;25390;-70
2022/02/22 01:57:28;;;;;;;13.60;4.90;;;;;;;4.21;63.68;98493.59;1726318;83;25581;-70
2022/02/22 01:59:55;;;;;;;8.88;3.83;;;;;;;4.20;63.96;98494.67;1711440;83;25400;-70
2022/02/22 02:02:22;;;;;;;12.55;4.28;;;;;;;4.19;64.19;98494.45;1711418;83;27293;-70
2022/02/22 02:04:48;;;;;;;14.70;4.75;;;;;;;4.17;64.55;98491.30;1711295;83;25567;-70
2022/02/22 02:07:15;;;;;;;10.25;4.67;;;;;;;4.16;64.67;98501.75;1711368;83;25629;-70
2022/02/22 02:09:42;;;;;;;7.60;3.83;;;;;;;4.14;65.21;98499.13;1726331;83;25538;-69
2022/02/22 02:12:09;;;;;;;9.88;4.20;;;;;;;4.10;65.85;98490.94;1711438;83;25455;-70
2022/02/22 02:14:35;;;;;;;14.50;4.45;;;;;;;4.06;66.06;98492.11;1711412;83;27314;-70
2022/02/22 02:17:02;;;;;;;8.38;3.33;;;;;;;4.02;66.52;98483.67;1711340;83;25537;-70
2022/02/22 02:19:28;;;;;;;8.95;4.08;;;;;;;3.98;66.92;98495.53;1726361;83;25559;-70
2022/02/22 02:21:59;;;;;;;10.60;4.12;;;;;;;3.94;66.89;98511.98;1711437;83;25669;-70
2022/02/22 02:24:28;;;;;;;6.40;3.70;;;;;;;3.89;67.35;98495.50;1711441;83;25495;-70
2022/02/22 02:26:56;;;;;;;7.15;3.60;;;;;;;3.85;67.95;98492.44;1711525;83;27921;-71
2022/02/22 02:29:27;;;;;;;8.85;4.00;;;;;;;3.79;68.25;98501.13;1726250;83;25618;-70
2022/02/22 02:31:56;;;;;;;8.43;3.85;;;;;;;3.74;68.38;98501.26;1711398;83;25438;-70
2022/02/22 02:34:26;;;;;;;9.27;3.57;;;;;;;3.70;68.44;98519.80;1710284;83;26230;-70
2022/02/22 02:36:53;;;;;;;5.50;3.40;;;;;;;3.66;68.99;98508.68;1705349;84;25539;-70
2022/02/22 02:39:20;;;;;;;6.62;3.62;;;;;;;3.65;68.99;98518.59;1705266;84;27332;-70
2022/02/22 02:41:48;;;;;;;6.90;3.70;;;;;;;3.64;69.24;98531.71;1752784;81;27221;-70
2022/02/22 02:44:20;;;;;;;6.95;4.05;;;;;;;3.64;69.66;98526.36;1752977;81;25547;-71
2022/02/22 02:46:46;;;;;;;9.98;4.03;;;;;;;3.62;70.01;98532.57;1753024;81;25659;-71
2022/02/22 02:49:15;;;;;;;7.72;3.55;;;;;;;3.64;70.08;98530.37;1752923;81;25672;-70
2022/02/22 02:51:43;;;;;;;9.05;3.65;;;;;;;3.63;70.04;98544.08;1752895;81;27402;-71
2022/02/22 02:54:11;;;;;;;5.15;3.08;;;;;;;3.64;70.24;98546.41;1752848;81;25572;-72
2022/02/22 02:56:38;;;;;;;6.45;3.42;;;;;;;3.64;70.36;98545.64;1731524;81;25462;-72
2022/02/22 02:59:08;;;;;;;6.60;3.50;;;;;;;3.66;70.51;98555.47;1752898;81;25793;-70
2022/02/22 03:01:36;;;;;;;8.95;4.20;;;;;;;3.65;70.51;98552.58;1752965;81;25381;-70
2022/02/22 03:04:04;;;;;;;5.40;3.77;;;;;;;3.66;70.59;98552.27;1752933;81;27894;-70
2022/02/22 03:06:31;;;;;;;7.15;3.58;;;;;;;3.67;70.70;98555.73;1752809;81;25477;-70
2022/02/22 03:08:58;;;;;;;5.78;3.60;;;;;;;3.68;71.38;98575.48;1752891;81;25401;-70
2022/02/22 03:11:27;;;;;;;6.22;3.98;;;;;;;3.68;71.02;98555.98;1752884;81;25634;-71
2022/02/22 03:13:53;;;;;;;;;;;;;;;3.68;71.11;98560.77;1755538;81;25626;-71
2022/02/22 03:16:20;;;;;;;8.88;3.45;;;;;;;3.68;71.41;98568.80;1752961;81;27480;-71
2022/02/22 03:18:47;;;;;;;8.60;4.08;;;;;;;3.67;71.25;98569.09;1752822;81;25549;-71
2022/02/22 03:21:13;;;;;;;7.83;4.12;;;;;;;3.67;71.76;98578.45;1752937;81;25549;-71
2022/02/22 03:23:40;;;;;;;6.33;3.95;;;;;;;3.66;71.89;98585.70;1752830;81;25628;-71
2022/02/22 03:26:07;;;;;;;6.05;4.20;;;;;;;3.67;71.53;98595.84;1752942;81;25457;-71
2022/02/22 03:28:34;;;;;;;6.92;3.98;;;;;;;3.66;71.87;98587.56;1752886;81;27943;-71
2022/02/22 03:31:03;;;;;;;9.05;4.30;;;;;;;3.65;72.37;98599.37;1752788;81;25449;-71
2022/02/22 03:33:32;;;;;;;8.88;4.03;;;;;;;3.62;72.47;98589.27;1752899;81;25387;-71
2022/02/22 03:36:01;;;;;;;6.78;3.58;;;;;;;3.62;72.25;98601.30;1757399;81;26160;-70
2022/02/22 03:38:27;;;;;;;8.25;3.62;;;;;;;3.61;72.27;98581.81;1759660;81;25618;-70
2022/02/22 03:40:54;;;;;;;5.87;3.60;;;;;;;3.59;72.81;98608.59;1759622;81;27525;-70
2022/02/22 03:43:20;;;;;;;6.15;3.67;;;;;;;3.57;73.42;98613.46;1759554;81;25379;-70
2022/02/22 03:45:46;;;;;;;7.17;4.05;;;;;;;3.54;73.85;98616.17;1759626;81;25424;-70
2022/02/22 03:48:13;;;;;;;6.65;4.10;;;;;;;3.50;73.85;98624.57;1759546;81;25627;-70
2022/02/22 03:50:39;;;;;;;5.03;4.37;;;;;;;3.47;74.27;98616.59;1759730;81;25385;-70
2022/02/22 03:53:06;;;;;;;6.42;4.37;;;;;;;3.43;76.00;98628.22;1759743;81;27371;-70
2022/02/22 03:55:32;;;;;;;6.37;3.95;;;;;;;3.38;74.78;98621.09;1759670;81;25574;-70
2022/02/22 03:57:58;;;;;;;10.03;4.85;;;;;;;3.34;74.96;98628.14;1759750;81;25420;-70
2022/02/22 04:00:27;;;;;;;4.83;3.55;;;;;;;3.30;75.14;98637.84;1759723;81;26175;-70
2022/02/22 04:02:54;;;;;;;4.72;3.50;;;;;;;3.27;75.35;98653.13;1759777;81;25457;-70
2022/02/22 04:05:22;;;;;;;9.43;3.62;;;;;;;3.25;75.32;98636.61;1759736;81;27395;-70
2022/02/22 04:07:50;;;;;;;8.60;4.35;;;;;;;3.24;75.52;98648.41;1759638;81;25448;-70
2022/02/22 04:10:17;;;;;;;6.10;3.77;;;;;;;3.21;76.15;98648.45;1759743;81;25438;-70
2022/02/22 04:12:44;;;;;;;6.87;3.77;;;;;;;3.18;76.19;98658.39;1759730;81;25805;-70
2022/02/22 04:15:11;;;;;;;4.72;3.30;;;;;;;3.17;76.13;98655.50;1759735;81;25379;-70
2022/02/22 04:17:38;;;;;;;5.40;3.42;;;;;;;3.15;75.53;98667.81;1759753;81;27308;-70
2022/02/22 04:20:06;;;;;;;4.55;3.50;;;;;;;3.15;76.19;98667.00;1759648;81;25645;-70
2022/02/22 04:22:33;;;;;;;4.45;3.30;;;;;;;3.13;76.02;98668.66;1759734;81;25437;-70
2022/02/22 04:24:59;;;;;;;5.50;3.20;;;;;;;3.14;75.53;98674.80;1759696;81;26278;-70
2022/02/22 04:27:26;;;;;;;5.55;2.70;;;;;;;3.13;75.50;98675.34;1759779;81;25630;-70
2022/02/22 04:29:52;;;;;;;4.60;3.20;;;;;;;3.14;75.59;98676.13;1759694;81;27323;-70
2022/02/22 04:32:19;;;;;;;6.25;3.20;;;;;;;3.14;75.73;98674.80;1759641;81;25631;-70
2022/02/22 04:34:45;;;;;;;6.42;3.12;;;;;;;3.15;75.70;98679.03;1760078;81;25408;-70
2022/02/22 04:37:15;;;;;;;5.67;2.80;;;;;;;3.15;75.53;98685.70;1763591;81;25659;-70
2022/02/22 04:39:40;;;;;;;5.25;3.00;;;;;;;3.16;75.28;98685.97;1763409;81;25384;-70
2022/02/22 04:42:07;;;;;;;5.55;3.15;;;;;;;3.17;75.20;98687.56;1763638;81;27320;-70
2022/02/22 04:44:34;;;;;;;5.40;2.85;;;;;;;3.20;75.23;98698.96;1763452;81;25611;-69
2022/02/22 04:47:01;;;;;;;7.60;3.35;;;;;;;3.21;75.43;98696.55;1763454;81;25544;-69
2022/02/22 04:49:28;;;;;;;5.55;2.70;;;;;;;3.23;74.98;98698.37;1763402;81;25688;-69
2022/02/22 04:51:54;;;;;;;7.15;3.27;;;;;;;3.25;74.92;98707.43;1763542;81;25559;-69
2022/02/22 04:54:20;;;;;;;6.58;2.58;;;;;;;3.27;74.88;98718.61;1763454;81;28036;-69
2022/02/22 04:56:46;;;;;;;5.53;2.62;;;;;;;3.28;75.08;98724.98;1763434;81;25596;-69
2022/02/22 04:59:13;;;;;;;3.47;3.15;;;;;;;3.29;74.70;98722.58;1763473;81;25604;-70
2022/02/22 05:01:39;;;;;;;5.22;2.60;;;;;;;3.31;74.70;98724.40;1763547;81;25585;-68
2022/02/22 05:04:06;;;;;;;4.25;2.45;;;;;;;3.32;74.72;98719.83;1763641;81;25556;-70
2022/02/22 05:06:32;;;;;;;5.00;2.98;;;;;;;3.33;74.70;98727.55;1763655;81;27369;-69
2022/02/22 05:08:58;;;;;;;4.33;2.77;;;;;;;3.34;74.95;98729.16;1763547;81;25591;-69
2022/02/22 05:11:25;;;;;;;3.98;3.00;;;;;;;3.34;74.70;98719.80;1763759;81;25401;-69
2022/02/22 05:13:51;;;;;;;5.70;2.70;;;;;;;3.36;74.74;98728.30;1763699;81;25611;-69
2022/02/22 05:16:17;;;;;;;6.45;3.05;;;;;;;3.38;74.73;98731.23;1763621;81;25601;-70
2022/02/22 05:18:44;;;;;;;4.10;2.90;;;;;;;3.39;74.76;98736.80;1763579;81;28045;-70
2022/02/22 05:21:10;;;;;;;8.53;3.50;;;;;;;3.40;74.75;98747.76;1763501;81;25370;-70
2022/02/22 05:23:37;;;;;;;6.70;3.20;;;;;;;3.43;74.79;98751.17;1763602;81;25393;-70
2022/02/22 05:26:09;;;;;;;5.92;3.60;;;;;;;3.44;74.77;98752.73;1763540;81;25567;-70
2022/02/22 05:28:35;;;;;;;5.40;2.83;;;;;;;3.44;74.93;98760.23;1763421;81;25599;-69
2022/02/22 05:31:02;;;;;;;8.68;2.70;;;;;;;3.46;74.85;98769.30;1763442;81;27320;-70
2022/02/22 05:33:28;;;;;;;5.75;3.17;;;;;;;3.46;74.79;98758.60;1763462;81;25487;-70
2022/02/22 05:35:55;;;;;;;8.15;3.15;;;;;;;3.48;74.72;98764.44;1763487;81;25407;-71
2022/02/22 05:38:22;;;;;;;4.03;2.87;;;;;;;3.49;74.73;98772.16;1763418;81;25615;-71
2022/02/22 05:40:49;;;;;;;5.85;2.70;;;;;;;3.50;74.83;98778.29;1763450;81;25395;-70
2022/02/22 05:43:16;;;;;;;9.35;3.83;;;;;;;3.51;74.65;98779.88;1763465;81;26483;-70
2022/02/22 05:45:43;;;;;;;8.93;3.50;;;;;;;3.52;74.92;98793.48;1763351;81;27228;-70
2022/02/22 05:48:09;;;;;;;7.35;2.95;;;;;;;3.53;74.82;98795.86;1763488;81;25570;-70
2022/02/22 05:50:38;;;;;;;6.12;3.00;;;;;;;3.53;74.87;98806.55;1763491;81;25677;-71
2022/02/22 05:53:06;;;;;;;6.37;2.95;;;;;;;3.54;74.91;98812.16;1763513;81;25571;-71
2022/02/22 05:55:33;;;;;;;5.12;3.42;;;;;;;3.54;75.11;98803.33;1763467;81;27326;-71
2022/02/22 05:57:59;;;;;;;7.03;3.22;;;;;;;3.55;75.03;98814.28;1763396;81;25570;-70
2022/02/22 06:00:26;;;;;;;10.23;3.33;;;;;;;3.56;75.22;98819.88;1763836;81;25465;-70
2022/02/22 06:02:53;;;;;;;12.88;3.47;;;;;;;3.57;74.99;98826.02;1763461;81;25604;-70
2022/02/22 06:05:20;;;;;;;9.28;3.30;;;;;;;3.58;75.10;98829.73;1763529;81;25593;-71
2022/02/22 06:07:46;;;;;;;6.15;2.90;;;;;;;3.57;75.36;98828.13;1763468;81;27230;-69
2022/02/22 06:10:16;;;;;;;9.25;3.02;;;;;;;3.58;75.15;98833.73;1763349;81;25460;-70
2022/02/22 06:12:48;;;;;;;6.28;3.17;;;;;;;3.61;75.19;98841.69;1763453;81;25458;-71
2022/02/22 06:15:15;;;;;;;5.62;2.80;;;;;;;3.60;75.21;98840.91;1763437;81;25596;-71
2022/02/22 06:17:43;;;;;;;12.10;3.65;;;;;;;3.62;75.16;98843.29;1763532;81;25436;-71
2022/02/22 06:20:13;;;;;;;13.25;3.27;;;;;;;3.62;75.04;98844.63;1763438;81;27405;-70
2022/02/22 06:22:40;;;;;;;6.80;3.00;;;;;;;3.65;75.10;98858.19;1763481;81;25571;-70
2022/02/22 06:25:09;;;;;;;6.25;2.52;;;;;;;3.67;75.04;98859.23;1763435;81;25659;-69
2022/02/22 06:27:50;;;;;;;5.67;3.27;;;;;;;3.70;74.99;98858.64;1763540;81;25629;-71
2022/02/22 06:30:20;;;;;;;5.25;2.87;;;;;;;3.71;75.02;98863.70;1763453;81;25410;-71
2022/02/22 06:32:47;;;;;;;;;;;;;;;3.74;75.10;98868.42;1766069;81;27941;-71
2022/02/22 06:35:14;;;;;;;8.83;3.15;;;;;;;3.76;75.14;98860.66;1763313;81;25575;-70
2022/02/22 06:37:40;;;;;;;11.63;3.45;;;;;;;3.74;75.11;98877.79;1759692;81;25519;-71
2022/02/22 06:40:08;;;;;;;6.67;3.10;;;;;;;3.76;75.13;98875.38;1759609;81;25623;-71
2022/02/22 06:42:37;;;;;;;6.62;3.33;;;;;;;3.78;75.00;98895.92;1759721;81;25558;-71
2022/02/22 06:45:07;;;;;;;7.78;3.40;;;;;;;3.79;75.00;98888.94;1759787;81;27454;-70
2022/02/22 06:47:35;;;;;;;;;;;;;;;3.78;75.09;98888.70;1762200;81;25652;-71
2022/02/22 06:50:02;;;;;;;6.25;3.40;;;;;;;3.80;75.12;98913.27;1759699;81;25622;-71
2022/02/22 06:52:28;;;;;;;9.33;3.22;;;;;;;3.79;75.15;98898.85;1759664;81;25546;-71
2022/02/22 06:54:55;;;;;;;9.65;3.72;;;;;;;3.79;75.18;98903.65;1759707;81;25452;-71
2022/02/22 06:57:21;;;;;;;7.28;3.10;;;;;;;3.78;74.99;98903.42;1759579;81;27352;-71
2022/02/22 06:59:48;;;;;;;8.75;3.60;;;;;;;3.79;75.25;98915.69;1759606;81;25780;-71
2022/02/22 07:02:14;;;;;;;8.23;3.52;;;;;;;3.80;75.29;98921.30;1759711;81;25605;-70
2022/02/22 07:04:41;;;;;;;10.60;4.80;;;;;;;3.80;75.41;98916.47;1759665;81;25617;-72
2022/02/22 07:07:08;;;;;;;13.53;3.47;;;;;;;3.81;75.41;98914.84;1759688;81;25627;-72
2022/02/22 07:09:35;;;;;;;9.18;3.83;;;;;;;3.81;75.47;98926.09;1759659;81;27521;-72
2022/02/22 07:12:02;;;;;;;6.33;3.35;;;;;;;3.84;75.89;98931.63;1759597;81;25403;-70
2022/02/22 07:14:28;;;;;;;10.05;3.42;;;;;;;3.84;75.97;98939.66;1759606;81;25619;-71
2022/02/22 07:16:58;;;;;;;9.90;4.90;;;;;;;3.83;76.35;98934.61;1759585;81;25702;-71
2022/02/22 07:19:24;;;;;;;6.22;3.77;;;;;;;3.82;76.48;98953.88;1759815;81;25721;-72
2022/02/22 07:21:51;;;;;;;12.82;4.25;;;;;;;3.80;77.02;98952.05;1759741;81;27357;-72
2022/02/22 07:24:18;;;;;;;6.67;4.03;;;;;;;3.76;76.79;98962.30;1759742;81;25614;-72
2022/02/22 07:26:44;;;;;;;5.70;3.75;;;;;;;3.74;78.10;98970.61;1760254;81;25611;-71
2022/02/22 07:29:11;;;;;;;9.43;4.62;;;;;;;3.71;77.69;98993.93;1760080;81;25640;-71
2022/02/22 07:31:37;;;;;;;11.70;4.78;;;;;;;3.68;77.91;99003.91;1759566;81;25543;-73
2022/02/22 07:34:03;;;;;;;9.88;4.90;;;;;;;3.60;78.04;99011.26;1759541;81;27902;-71
2022/02/22 07:36:30;;;;;;;9.85;4.87;;;;;;;3.51;78.01;99011.14;1761221;81;25465;-72
2022/02/22 07:38:56;;;;;;;7.72;3.98;;;;;;;3.46;78.46;99019.25;1763370;81;26053;-72
2022/02/22 07:41:23;;;;;;;15.72;6.42;;;;;;;3.43;78.65;99019.27;1763225;81;25623;-71
2022/02/22 07:43:51;;;;;;;12.23;5.72;;;;;;;3.42;79.03;99030.25;1741389;81;25470;-72
2022/02/22 07:46:18;;;;;;;10.43;6.30;;;;;;;3.41;79.49;99042.05;1763329;81;27447;-72
2022/02/22 07:48:47;;;;;;;12.07;5.05;;;;;;;3.40;79.76;99055.94;1763284;81;25641;-71
2022/02/22 07:51:16;;;;;;;15.72;6.35;;;;;;;3.38;79.94;99070.70;1763552;81;25536;-71
2022/02/22 07:53:44;;;;;;;14.23;6.33;;;;;;;3.33;80.07;99071.00;1763710;81;25606;-72
2022/02/22 07:56:12;;;;;;;8.13;4.35;;;;;;;3.33;80.34;99076.35;1762013;80;25394;-71
2022/02/22 07:58:39;;;;;;;6.37;3.95;;;;;;;3.35;80.67;99070.72;1731750;81;27371;-71
2022/02/22 08:01:06;;;;;;;4.40;3.90;;;;;;;3.45;81.22;99077.25;1730598;82;26349;-71
2022/02/22 08:03:37;;;;;;;7.55;3.90;;;;;;;3.68;82.11;99079.56;1730655;82;25785;-72
2022/02/22 08:06:03;;;;;;;6.40;4.03;;;;;;;4.24;82.86;99079.66;1709434;82;26388;-72
2022/02/22 08:08:29;;;;;;;6.20;3.20;;;;;;;4.91;81.88;99071.11;1730664;82;25659;-72
2022/02/22 08:10:56;;;;;;;5.95;2.92;;;;;;;5.11;81.27;99074.44;1730616;82;27327;-72
2022/02/22 08:13:23;;;;;;;6.40;3.35;;;;;;;5.37;79.94;99083.50;1730546;82;26397;-71
2022/02/22 08:15:49;;;;;;;9.40;3.77;;;;;;;5.42;79.28;99089.30;1730620;82;25732;-70
2022/02/22 08:18:16;;;;;;;5.22;2.87;;;;;;;5.42;78.44;99091.42;1730602;82;26204;-71
2022/02/22 08:20:42;;;;;;;6.87;2.70;;;;;;;5.37;77.85;99094.22;1730494;82;26440;-72
2022/02/22 08:23:09;;;;;;;5.95;2.60;;;;;;;5.29;77.14;99098.95;1730781;82;28467;-70
2022/02/22 08:25:36;;;;;;;3.87;3.00;;;;;;;5.20;76.91;99110.17;1730503;82;26300;-71
2022/02/22 08:28:11;;;;;;;7.35;3.12;;;;;;;5.04;76.63;99115.86;1709497;82;25774;-71
2022/02/22 08:30:39;;;;;;;7.08;3.05;;;;;;;4.95;76.84;99122.22;1730419;82;25877;-71
2022/02/22 08:33:07;;;;;;;8.53;4.90;;;;;;;4.86;76.70;99131.52;1730377;82;25912;-71
2022/02/22 08:35:35;;;;;;;12.33;6.50;;;;;;;4.72;76.39;99139.56;1730249;82;28142;-71
2022/02/22 08:38:02;;;;;;;7.70;3.70;;;;;;;4.65;76.77;99144.52;1726944;82;25776;-71
2022/02/22 08:40:29;;;;;;;7.25;3.30;;;;;;;4.60;76.80;99148.64;1726758;82;25811;-71
2022/02/22 08:42:55;;;;;;;6.47;3.47;;;;;;;4.58;77.10;99166.86;1726555;83;25747;-71
2022/02/22 08:45:24;;;;;;;16.87;3.87;;;;;;;4.70;78.49;99155.14;1726742;83;25833;-69
2022/02/22 08:47:51;;;;;;;6.65;3.67;;;;;;;5.38;80.33;99161.52;1726840;83;27923;-70
2022/02/22 08:50:17;;;;;;;7.55;3.22;;;;;;;5.82;79.46;99168.56;1726683;83;25813;-69
2022/02/22 08:52:44;;;;;;;7.97;2.95;;;;;;;6.07;78.37;99169.09;1726700;83;25724;-69
2022/02/22 08:55:10;;;;;;;8.60;3.30;;;;;;;6.25;76.45;99177.51;1726667;83;26192;-69
2022/02/22 08:57:37;;;;;;;6.90;3.22;;;;;;;6.25;74.95;99178.04;1726830;82;25672;-70
2022/02/22 09:00:10;;;;;;;7.50;3.30;;;;;;;6.15;73.86;99185.27;1726696;83;27289;-71
2022/02/22 09:02:34;;;;;;;7.30;3.30;;;;;;;6.01;72.93;99187.76;1726080;83;26403;-71
2022/02/22 09:05:01;;;;;;;5.90;2.52;;;;;;;5.88;73.22;99200.91;1726676;82;25807;-71
2022/02/22 09:07:27;;;;;;;9.40;3.05;;;;;;;5.79;71.79;99194.13;1726633;83;25697;-71
2022/02/22 09:09:53;;;;;;;5.42;2.40;;;;;;;5.77;72.34;99188.81;1726718;83;25784;-71
2022/02/22 09:12:21;;;;;;;4.95;2.52;;;;;;;5.78;72.05;99199.80;1701974;83;27314;-69
2022/02/22 09:14:48;;;;;;;5.50;2.75;;;;;;;6.03;73.13;99201.66;1726593;83;25830;-70
2022/02/22 09:17:14;;;;;;;11.40;2.40;;;;;;;6.31;73.16;99204.46;1726768;83;25740;-70
2022/02/22 09:19:41;;;;;;;6.92;2.80;;;;;;;6.57;71.20;99207.06;1726480;82;26273;-70
2022/02/22 09:22:08;;;;;;;8.23;2.98;;;;;;;6.53;71.38;99210.36;1726518;83;25756;-70
2022/02/22 09:24:34;;;;;;;3.92;2.15;;;;;;;6.55;70.69;99215.42;1726368;83;27328;-70
2022/02/22 09:27:01;;;;;;;11.18;4.08;;;;;;;6.54;70.50;99219.23;1726466;83;25813;-69
2022/02/22 09:29:28;;;;;;;5.62;2.60;;;;;;;6.47;69.78;99222.87;1726477;83;25710;-70
2022/02/22 09:31:54;;;;;;;7.10;2.62;;;;;;;6.28;68.81;99222.55;1726513;83;26354;-70
2022/02/22 09:34:22;;;;;;;7.65;2.27;;;;;;;6.19;69.11;99241.83;1726426;82;25753;-69
2022/02/22 09:36:49;;;;;;;5.70;2.00;;;;;;;6.12;68.36;99230.17;1726407;83;27336;-70
2022/02/22 09:39:15;;;;;;;4.53;2.45;;;;;;;6.08;69.06;99241.28;1726437;83;25699;-70
2022/02/22 09:41:42;;;;;;;3.20;2.22;;;;;;;6.30;69.41;99240.49;1726470;83;25721;-70
2022/02/22 09:44:08;;;;;;;6.83;2.12;;;;;;;6.81;69.01;99236.25;1726511;83;25853;-70
2022/02/22 09:46:35;;;;;;;9.50;2.30;;;;;;;6.89;67.30;99238.98;1701733;83;25866;-70
2022/02/22 09:49:02;;;;;;;5.30;2.60;;;;;;;6.81;67.52;99253.73;1726491;82;27314;-69
2022/02/22 09:51:28;;;;;;;9.48;2.70;;;;;;;6.72;66.79;99257.19;1726454;83;25804;-69
2022/02/22 09:53:55;;;;;;;6.50;2.25;;;;;;;6.64;66.15;99247.71;1726542;83;25714;-68
2022/02/22 09:56:24;;;;;;;6.80;2.22;;;;;;;6.60;66.91;99262.31;1726699;83;25721;-69
2022/02/22 09:58:52;;;;;;;4.83;2.58;;;;;;;7.00;67.59;99257.52;1726901;83;25759;-70
2022/02/22 10:01:19;;;;;;;7.42;2.45;;;;;;;7.41;65.21;99261.23;1726862;83;27367;-69
2022/02/22 10:03:58;;;;;;;8.80;3.08;;;;;;;7.74;66.23;99259.47;1726625;83;25738;-70
2022/02/22 10:06:26;;;;;;;4.92;2.02;;;;;;;9.27;65.26;99267.72;1725949;83;35309;-70
2022/02/22 10:08:56;;;;;;;6.35;2.55;;;;;;;9.42;60.74;99273.70;1726610;83;26483;-70
2022/02/22 10:11:23;;;;;;;4.40;1.95;;;;;;;9.11;58.90;99288.28;1726930;83;25741;-70
2022/02/22 10:13:49;;;;;;;3.05;1.70;;;;;;;8.75;59.57;99292.17;1727035;82;27324;-70
2022/02/22 10:16:17;;;;;;;8.03;2.15;;;;;;;8.35;59.42;99294.51;1726584;83;25764;-71
2022/02/22 10:18:52;;;;;;;6.30;2.67;;;;;;;8.07;59.75;99296.75;1726435;83;25723;-70
2022/02/22 10:21:21;;;;;;;4.60;2.60;;;;;;;7.84;60.58;99296.86;1726362;83;26358;-69
2022/02/22 10:23:47;;;;;;;3.98;2.10;;;;;;;7.61;60.47;99310.19;1726708;83;33157;-69
2022/02/22 10:26:29;;;;;;;6.85;2.02;;;;;;;7.36;59.64;99292.33;1726387;83;27323;-70
2022/02/22 10:28:56;;;;;;;5.25;2.30;;;;;;;7.11;59.67;99299.97;1726417;83;25746;-69
2022/02/22 10:31:32;;;;;;;8.38;3.47;;;;;;;7.01;59.93;99310.20;1726361;83;25640;-70
2022/02/22 10:33:58;;;;;;;9.18;2.37;;;;;;;7.07;60.23;99304.39;1701780;83;26187;-71
2022/02/22 10:36:30;;;;;;;6.33;2.77;;;;;;;7.17;60.60;99318.66;1726514;83;26349;-71
2022/02/22 10:39:10;;;;;;;5.83;1.60;;;;;;;7.40;59.95;99304.03;1729670;82;27435;-70
2022/02/22 10:41:41;;;;;;;7.40;2.35;;;;;;;8.56;55.22;99308.70;1708451;82;25781;-71
2022/02/22 10:44:11;;;;;;;10.72;4.55;;;;;;;8.54;55.97;99322.50;1728668;82;26306;-70
2022/02/22 10:46:45;;;;;;;12.50;4.62;;;;;;;8.67;56.83;99314.58;1730117;82;26169;-70
2022/02/22 10:49:13;;;;;;;8.85;4.58;;;;;;;8.47;54.01;99324.10;1729585;82;25716;-70
2022/02/22 10:51:44;;;;;;;10.55;3.30;;;;;;;8.18;55.47;99331.67;1730203;82;27935;-69
2022/02/22 10:54:18;;;;;;;4.97;2.47;;;;;;;7.96;55.87;99335.85;1729141;82;25725;-70
2022/02/22 10:56:46;;;;;;;9.73;4.33;;;;;;;7.91;56.21;99324.67;1729708;82;25963;-69
2022/02/22 10:59:13;;;;;;;6.83;4.05;;;;;;;7.79;55.92;99323.15;1730353;82;25790;-70
2022/02/22 11:01:40;;;;;;;6.20;3.92;;;;;;;7.74;56.69;99330.03;1709197;82;25810;-70
2022/02/22 11:04:08;;;;;;;8.83;3.60;;;;;;;7.70;56.82;99340.63;1730417;82;27352;-70
2022/02/22 11:06:35;;;;;;;9.08;3.15;;;;;;;7.71;56.34;99338.72;1730233;82;25775;-70
2022/02/22 11:09:03;;;;;;;9.73;3.50;;;;;;;7.82;57.89;99342.16;1730365;82;25792;-70
2022/02/22 11:11:41;;;;;;;9.85;3.60;;;;;;;8.21;57.60;99340.47;1745992;80;26262;-71
2022/02/22 11:14:15;;;;;;;7.10;2.70;;;;;;;9.06;58.49;99340.50;1749873;81;25746;-70
2022/02/22 11:16:48;;;;;;;7.03;2.40;;;;;;;10.05;56.10;99342.66;1730481;82;28213;-70
2022/02/22 11:19:22;;;;;;;8.48;2.40;;;;;;;11.43;55.28;99332.22;1749854;82;25694;-70
2022/02/22 11:21:54;;;;;;;5.47;2.02;;;;;;;12.86;55.69;99332.92;1750050;81;25919;-71
2022/02/22 11:24:22;;;;;;;6.40;2.22;;;;;;;14.53;54.45;99343.19;1730559;82;26012;-71
2022/02/22 11:26:59;;;;;;;8.03;4.05;;;;;;;15.71;52.78;99348.38;1749996;82;25758;-72
2022/02/22 11:29:30;;;;;;;4.67;2.72;;;;;;;16.83;51.38;99343.22;1750009;82;27329;-71
2022/02/22 11:32:12;;;;;;;9.25;2.55;;;;;;;16.62;47.84;99351.38;1698183;84;25748;-71
2022/02/22 11:34:42;;;;;;;5.20;2.27;;;;;;;15.68;45.60;99347.95;1698147;84;25768;-70
2022/02/22 11:37:13;;;;;;;;;;;;;;;14.66;44.57;99367.55;1700533;83;26314;-70
2022/02/22 11:39:51;;;;;;;6.00;3.02;;;;;;;13.87;45.18;99369.94;1695558;84;25724;-70
2022/02/22 11:42:31;;;;;;;4.95;2.65;;;;;;;13.21;45.67;99370.29;1695332;84;28197;-71
2022/02/22 11:45:07;;;;;;;5.95;2.22;;;;;;;12.67;46.71;99367.50;1677585;85;25684;-70